Terminal Aerodrome Forecast
Issued by NWS Wilmington, OH

Current Version | Previous Version | Text Only | Print | Product List | Glossary Off
Versions: 1 2 3 4 5 6 7 8 9 10 11 12 13 14 15 16 17 18 19

259
FTUS41 KILN 221720
TAFDAY
TAF
KDAY 221720Z 2218/2318 26012G21KT P6SM -SHRA OVC035
      TEMPO 2218/2219 6SM SHRA BR BKN025
     FM221900 26013G23KT P6SM VCSH BKN040
     FM222100 28012KT P6SM BKN045
     FM230200 31005KT P6SM SCT150
     FM231500 30008KT P6SM SCT050=

USA.gov is the U.S. government's official web portal to all federal, state and local government web resources and services.